sensor_id;sensor_type;location;lat;lon;timestamp;P1;durP1;ratioP1;P2;durP2;ratioP2
72524;SDS011;60547;48.502;8.996;2023-03-01T00:01:49;19.73;;;10.10;;
72524;SDS011;60547;48.502;8.996;2023-03-01T00:04:15;20.52;;;10.43;;
72524;SDS011;60547;48.502;8.996;2023-03-01T00:06:42;20.50;;;10.43;;
72524;SDS011;60547;48.502;8.996;2023-03-01T00:09:08;20.15;;;11.32;;
72524;SDS011;60547;48.502;8.996;2023-03-01T00:11:33;21.00;;;9.80;;
72524;SDS011;60547;48.502;8.996;2023-03-01T00:14:00;18.48;;;10.13;;
72524;SDS011;60547;48.502;8.996;2023-03-01T00:16:30;18.73;;;11.40;;
72524;SDS011;60547;48.502;8.996;2023-03-01T00:19:01;19.33;;;10.57;;
72524;SDS011;60547;48.502;8.996;2023-03-01T00:21:27;17.80;;;9.63;;
72524;SDS011;60547;48.502;8.996;2023-03-01T00:23:54;17.88;;;11.35;;
72524;SDS011;60547;48.502;8.996;2023-03-01T00:26:20;19.05;;;10.95;;
72524;SDS011;60547;48.502;8.996;2023-03-01T00:28:47;19.02;;;9.43;;
72524;SDS011;60547;48.502;8.996;2023-03-01T00:31:14;17.92;;;9.73;;
72524;SDS011;60547;48.502;8.996;2023-03-01T00:33:43;16.67;;;9.18;;
72524;SDS011;60547;48.502;8.996;2023-03-01T00:36:10;18.08;;;9.88;;
72524;SDS011;60547;48.502;8.996;2023-03-01T00:38:38;20.25;;;10.20;;
72524;SDS011;60547;48.502;8.996;2023-03-01T00:41:05;18.35;;;9.68;;
72524;SDS011;60547;48.502;8.996;2023-03-01T00:43:36;20.98;;;10.25;;
72524;SDS011;60547;48.502;8.996;2023-03-01T00:46:03;17.55;;;9.68;;
72524;SDS011;60547;48.502;8.996;2023-03-01T00:48:31;19.25;;;9.10;;
72524;SDS011;60547;48.502;8.996;2023-03-01T00:50:56;17.52;;;8.93;;
72524;SDS011;60547;48.502;8.996;2023-03-01T00:53:22;17.42;;;10.13;;
72524;SDS011;60547;48.502;8.996;2023-03-01T00:55:47;19.80;;;10.25;;
72524;SDS011;60547;48.502;8.996;2023-03-01T00:58:13;16.92;;;9.50;;
72524;SDS011;60547;48.502;8.996;2023-03-01T01:00:38;18.13;;;9.20;;
72524;SDS011;60547;48.502;8.996;2023-03-01T01:03:04;18.50;;;9.85;;
72524;SDS011;60547;48.502;8.996;2023-03-01T01:05:29;16.27;;;8.57;;
72524;SDS011;60547;48.502;8.996;2023-03-01T01:07:55;17.58;;;9.60;;
72524;SDS011;60547;48.502;8.996;2023-03-01T01:10:21;19.38;;;9.82;;
72524;SDS011;60547;48.502;8.996;2023-03-01T01:12:46;19.65;;;10.60;;
72524;SDS011;60547;48.502;8.996;2023-03-01T01:15:12;20.67;;;10.88;;
72524;SDS011;60547;48.502;8.996;2023-03-01T01:17:39;17.92;;;9.63;;
72524;SDS011;60547;48.502;8.996;2023-03-01T01:20:05;18.77;;;9.75;;
72524;SDS011;60547;48.502;8.996;2023-03-01T01:22:31;18.63;;;9.85;;
72524;SDS011;60547;48.502;8.996;2023-03-01T01:24:57;17.08;;;9.95;;
72524;SDS011;60547;48.502;8.996;2023-03-01T01:27:22;17.35;;;9.25;;
72524;SDS011;60547;48.502;8.996;2023-03-01T01:29:48;18.38;;;9.55;;
72524;SDS011;60547;48.502;8.996;2023-03-01T01:32:13;19.33;;;9.80;;
72524;SDS011;60547;48.502;8.996;2023-03-01T01:34:40;17.70;;;9.27;;
72524;SDS011;60547;48.502;8.996;2023-03-01T01:37:06;15.00;;;8.23;;
72524;SDS011;60547;48.502;8.996;2023-03-01T01:39:33;14.55;;;8.48;;
72524;SDS011;60547;48.502;8.996;2023-03-01T01:42:00;14.88;;;8.35;;
72524;SDS011;60547;48.502;8.996;2023-03-01T01:44:26;16.98;;;9.40;;
72524;SDS011;60547;48.502;8.996;2023-03-01T01:47:06;16.30;;;8.30;;
72524;SDS011;60547;48.502;8.996;2023-03-01T01:49:39;17.08;;;9.25;;
72524;SDS011;60547;48.502;8.996;2023-03-01T01:52:12;19.38;;;8.55;;
72524;SDS011;60547;48.502;8.996;2023-03-01T01:54:50;17.95;;;8.20;;
72524;SDS011;60547;48.502;8.996;2023-03-01T01:57:21;14.73;;;8.00;;
72524;SDS011;60547;48.502;8.996;2023-03-01T01:59:51;15.02;;;8.30;;
72524;SDS011;60547;48.502;8.996;2023-03-01T02:02:19;15.63;;;8.40;;
72524;SDS011;60547;48.502;8.996;2023-03-01T02:04:46;15.93;;;8.82;;
72524;SDS011;60547;48.502;8.996;2023-03-01T02:09:49;16.75;;;9.40;;
72524;SDS011;60547;48.502;8.996;2023-03-01T02:12:18;17.15;;;8.65;;
72524;SDS011;60547;48.502;8.996;2023-03-01T02:14:47;17.25;;;8.65;;
72524;SDS011;60547;48.502;8.996;2023-03-01T02:17:12;17.42;;;9.35;;
72524;SDS011;60547;48.502;8.996;2023-03-01T02:19:50;14.55;;;8.65;;
72524;SDS011;60547;48.502;8.996;2023-03-01T02:22:37;18.35;;;9.32;;
72524;SDS011;60547;48.502;8.996;2023-03-01T02:27:33;16.77;;;9.50;;
72524;SDS011;60547;48.502;8.996;2023-03-01T02:30:05;15.73;;;9.07;;
72524;SDS011;60547;48.502;8.996;2023-03-01T02:32:31;19.20;;;9.45;;
72524;SDS011;60547;48.502;8.996;2023-03-01T02:34:57;18.88;;;9.38;;
72524;SDS011;60547;48.502;8.996;2023-03-01T02:37:23;16.65;;;9.15;;
72524;SDS011;60547;48.502;8.996;2023-03-01T02:39:58;17.80;;;8.85;;
72524;SDS011;60547;48.502;8.996;2023-03-01T02:42:31;18.08;;;9.30;;
72524;SDS011;60547;48.502;8.996;2023-03-01T02:45:01;18.13;;;9.60;;
72524;SDS011;60547;48.502;8.996;2023-03-01T02:47:27;16.10;;;8.57;;
72524;SDS011;60547;48.502;8.996;2023-03-01T02:49:52;16.30;;;9.45;;
72524;SDS011;60547;48.502;8.996;2023-03-01T02:55:37;18.13;;;8.98;;
72524;SDS011;60547;48.502;8.996;2023-03-01T02:58:03;15.07;;;8.82;;
72524;SDS011;60547;48.502;8.996;2023-03-01T03:00:31;18.38;;;10.00;;
72524;SDS011;60547;48.502;8.996;2023-03-01T03:03:00;17.75;;;9.57;;
72524;SDS011;60547;48.502;8.996;2023-03-01T03:05:27;17.60;;;9.38;;
72524;SDS011;60547;48.502;8.996;2023-03-01T03:07:54;16.83;;;9.85;;
72524;SDS011;60547;48.502;8.996;2023-03-01T03:10:21;17.73;;;9.77;;
72524;SDS011;60547;48.502;8.996;2023-03-01T03:12:50;18.50;;;10.23;;
72524;SDS011;60547;48.502;8.996;2023-03-01T03:15:16;15.65;;;9.40;;
72524;SDS011;60547;48.502;8.996;2023-03-01T03:17:42;20.30;;;9.65;;
72524;SDS011;60547;48.502;8.996;2023-03-01T03:20:09;16.60;;;9.25;;
72524;SDS011;60547;48.502;8.996;2023-03-01T03:22:38;17.08;;;9.00;;
72524;SDS011;60547;48.502;8.996;2023-03-01T03:25:05;15.95;;;9.20;;
72524;SDS011;60547;48.502;8.996;2023-03-01T03:27:36;19.65;;;9.73;;
72524;SDS011;60547;48.502;8.996;2023-03-01T03:30:03;18.30;;;9.30;;
72524;SDS011;60547;48.502;8.996;2023-03-01T03:32:37;17.60;;;10.07;;
72524;SDS011;60547;48.502;8.996;2023-03-01T03:35:03;20.67;;;9.93;;
72524;SDS011;60547;48.502;8.996;2023-03-01T03:40:24;19.17;;;10.18;;
72524;SDS011;60547;48.502;8.996;2023-03-01T03:42:50;17.35;;;9.77;;
72524;SDS011;60547;48.502;8.996;2023-03-01T03:45:16;16.92;;;9.13;;
72524;SDS011;60547;48.502;8.996;2023-03-01T03:47:43;18.30;;;10.07;;
72524;SDS011;60547;48.502;8.996;2023-03-01T03:50:09;22.17;;;10.82;;
72524;SDS011;60547;48.502;8.996;2023-03-01T03:52:36;18.10;;;9.95;;
72524;SDS011;60547;48.502;8.996;2023-03-01T03:55:01;18.05;;;9.98;;
72524;SDS011;60547;48.502;8.996;2023-03-01T03:57:27;17.08;;;9.48;;
72524;SDS011;60547;48.502;8.996;2023-03-01T03:59:52;18.48;;;10.43;;
72524;SDS011;60547;48.502;8.996;2023-03-01T04:02:18;18.58;;;9.48;;
72524;SDS011;60547;48.502;8.996;2023-03-01T04:04:50;18.95;;;10.70;;
72524;SDS011;60547;48.502;8.996;2023-03-01T04:07:16;19.02;;;10.25;;
72524;SDS011;60547;48.502;8.996;2023-03-01T04:09:42;18.40;;;10.63;;
72524;SDS011;60547;48.502;8.996;2023-03-01T04:12:08;18.30;;;9.20;;
72524;SDS011;60547;48.502;8.996;2023-03-01T04:14:34;18.52;;;9.77;;
72524;SDS011;60547;48.502;8.996;2023-03-01T04:17:00;17.88;;;9.73;;
72524;SDS011;60547;48.502;8.996;2023-03-01T04:19:26;20.13;;;10.65;;
72524;SDS011;60547;48.502;8.996;2023-03-01T04:21:52;16.38;;;9.52;;
72524;SDS011;60547;48.502;8.996;2023-03-01T04:24:18;18.25;;;11.05;;
72524;SDS011;60547;48.502;8.996;2023-03-01T04:26:44;17.15;;;9.10;;
72524;SDS011;60547;48.502;8.996;2023-03-01T04:29:09;18.00;;;9.52;;
72524;SDS011;60547;48.502;8.996;2023-03-01T04:31:35;16.67;;;10.15;;
72524;SDS011;60547;48.502;8.996;2023-03-01T04:34:01;17.05;;;9.10;;
72524;SDS011;60547;48.502;8.996;2023-03-01T04:36:27;16.88;;;9.45;;
72524;SDS011;60547;48.502;8.996;2023-03-01T04:38:54;21.80;;;10.40;;
72524;SDS011;60547;48.502;8.996;2023-03-01T04:41:22;21.00;;;10.10;;
72524;SDS011;60547;48.502;8.996;2023-03-01T04:43:49;19.50;;;9.40;;
72524;SDS011;60547;48.502;8.996;2023-03-01T04:46:17;19.45;;;10.38;;
72524;SDS011;60547;48.502;8.996;2023-03-01T04:48:44;19.63;;;10.32;;
72524;SDS011;60547;48.502;8.996;2023-03-01T04:51:10;18.77;;;10.65;;
72524;SDS011;60547;48.502;8.996;2023-03-01T04:53:38;19.05;;;9.15;;
72524;SDS011;60547;48.502;8.996;2023-03-01T04:56:05;17.17;;;10.13;;
72524;SDS011;60547;48.502;8.996;2023-03-01T04:58:33;17.70;;;9.93;;
72524;SDS011;60547;48.502;8.996;2023-03-01T05:00:58;18.45;;;9.75;;
72524;SDS011;60547;48.502;8.996;2023-03-01T05:03:24;20.70;;;11.70;;
72524;SDS011;60547;48.502;8.996;2023-03-01T05:05:50;21.30;;;10.00;;
72524;SDS011;60547;48.502;8.996;2023-03-01T05:08:17;20.85;;;11.68;;
72524;SDS011;60547;48.502;8.996;2023-03-01T05:10:48;19.25;;;10.00;;
72524;SDS011;60547;48.502;8.996;2023-03-01T05:13:15;19.48;;;10.55;;
72524;SDS011;60547;48.502;8.996;2023-03-01T05:15:53;15.80;;;10.18;;
72524;SDS011;60547;48.502;8.996;2023-03-01T05:18:24;17.67;;;9.52;;
72524;SDS011;60547;48.502;8.996;2023-03-01T05:20:54;20.00;;;11.23;;
72524;SDS011;60547;48.502;8.996;2023-03-01T05:23:21;18.40;;;9.50;;
72524;SDS011;60547;48.502;8.996;2023-03-01T05:25:48;20.30;;;11.27;;
72524;SDS011;60547;48.502;8.996;2023-03-01T05:28:14;16.90;;;9.70;;
72524;SDS011;60547;48.502;8.996;2023-03-01T05:30:40;17.08;;;10.02;;
72524;SDS011;60547;48.502;8.996;2023-03-01T05:33:07;18.65;;;11.45;;
72524;SDS011;60547;48.502;8.996;2023-03-01T05:35:42;21.55;;;11.40;;
72524;SDS011;60547;48.502;8.996;2023-03-01T05:38:09;23.33;;;11.57;;
72524;SDS011;60547;48.502;8.996;2023-03-01T05:40:39;19.13;;;10.68;;
72524;SDS011;60547;48.502;8.996;2023-03-01T05:43:05;18.40;;;10.98;;
72524;SDS011;60547;48.502;8.996;2023-03-01T05:45:31;22.75;;;11.43;;
72524;SDS011;60547;48.502;8.996;2023-03-01T05:47:57;20.42;;;12.18;;
72524;SDS011;60547;48.502;8.996;2023-03-01T05:50:25;21.50;;;11.10;;
72524;SDS011;60547;48.502;8.996;2023-03-01T05:52:56;20.30;;;11.00;;
72524;SDS011;60547;48.502;8.996;2023-03-01T05:55:33;19.15;;;11.10;;
72524;SDS011;60547;48.502;8.996;2023-03-01T05:58:03;22.42;;;11.10;;
72524;SDS011;60547;48.502;8.996;2023-03-01T06:00:30;21.65;;;11.55;;
72524;SDS011;60547;48.502;8.996;2023-03-01T06:02:57;17.40;;;10.68;;
72524;SDS011;60547;48.502;8.996;2023-03-01T06:05:24;19.58;;;10.43;;
72524;SDS011;60547;48.502;8.996;2023-03-01T06:07:50;19.80;;;11.55;;
72524;SDS011;60547;48.502;8.996;2023-03-01T06:10:16;21.45;;;11.27;;
72524;SDS011;60547;48.502;8.996;2023-03-01T06:12:43;20.05;;;11.73;;
72524;SDS011;60547;48.502;8.996;2023-03-01T06:15:10;20.40;;;11.10;;
72524;SDS011;60547;48.502;8.996;2023-03-01T06:17:37;22.45;;;12.00;;
72524;SDS011;60547;48.502;8.996;2023-03-01T06:20:09;20.45;;;11.38;;
72524;SDS011;60547;48.502;8.996;2023-03-01T06:22:40;22.55;;;11.77;;
72524;SDS011;60547;48.502;8.996;2023-03-01T06:25:07;21.73;;;13.23;;
72524;SDS011;60547;48.502;8.996;2023-03-01T06:27:34;23.35;;;14.85;;
72524;SDS011;60547;48.502;8.996;2023-03-01T06:29:59;22.80;;;14.95;;
72524;SDS011;60547;48.502;8.996;2023-03-01T06:32:25;22.33;;;14.05;;
72524;SDS011;60547;48.502;8.996;2023-03-01T06:34:50;22.13;;;13.68;;
72524;SDS011;60547;48.502;8.996;2023-03-01T06:37:16;22.77;;;12.82;;
72524;SDS011;60547;48.502;8.996;2023-03-01T06:39:42;21.80;;;12.40;;
72524;SDS011;60547;48.502;8.996;2023-03-01T06:42:08;20.02;;;11.75;;
72524;SDS011;60547;48.502;8.996;2023-03-01T06:44:35;22.75;;;12.07;;
72524;SDS011;60547;48.502;8.996;2023-03-01T06:47:02;20.17;;;11.48;;
72524;SDS011;60547;48.502;8.996;2023-03-01T06:49:28;21.75;;;11.02;;
72524;SDS011;60547;48.502;8.996;2023-03-01T06:51:54;23.73;;;12.48;;
72524;SDS011;60547;48.502;8.996;2023-03-01T06:54:19;21.88;;;12.18;;
72524;SDS011;60547;48.502;8.996;2023-03-01T06:56:47;20.42;;;11.93;;
72524;SDS011;60547;48.502;8.996;2023-03-01T06:59:13;21.55;;;12.38;;
72524;SDS011;60547;48.502;8.996;2023-03-01T07:01:39;17.85;;;10.75;;
72524;SDS011;60547;48.502;8.996;2023-03-01T07:04:05;19.90;;;10.85;;
72524;SDS011;60547;48.502;8.996;2023-03-01T07:06:30;19.35;;;11.30;;
72524;SDS011;60547;48.502;8.996;2023-03-01T07:08:56;19.08;;;11.80;;
72524;SDS011;60547;48.502;8.996;2023-03-01T07:11:21;20.42;;;10.73;;
72524;SDS011;60547;48.502;8.996;2023-03-01T07:13:47;18.40;;;10.95;;
72524;SDS011;60547;48.502;8.996;2023-03-01T07:16:13;22.63;;;11.10;;
72524;SDS011;60547;48.502;8.996;2023-03-01T07:18:39;19.33;;;11.63;;
72524;SDS011;60547;48.502;8.996;2023-03-01T07:21:05;20.38;;;10.38;;
72524;SDS011;60547;48.502;8.996;2023-03-01T07:23:32;16.73;;;9.85;;
72524;SDS011;60547;48.502;8.996;2023-03-01T07:25:58;20.38;;;12.30;;
72524;SDS011;60547;48.502;8.996;2023-03-01T07:28:23;21.92;;;11.48;;
72524;SDS011;60547;48.502;8.996;2023-03-01T07:30:50;21.75;;;12.13;;
72524;SDS011;60547;48.502;8.996;2023-03-01T07:33:16;17.83;;;10.88;;
72524;SDS011;60547;48.502;8.996;2023-03-01T07:35:42;20.15;;;11.60;;
72524;SDS011;60547;48.502;8.996;2023-03-01T07:38:07;21.85;;;12.45;;
72524;SDS011;60547;48.502;8.996;2023-03-01T07:40:33;22.40;;;12.48;;
72524;SDS011;60547;48.502;8.996;2023-03-01T07:42:59;21.23;;;11.85;;
72524;SDS011;60547;48.502;8.996;2023-03-01T07:45:25;21.70;;;12.23;;
72524;SDS011;60547;48.502;8.996;2023-03-01T07:47:51;20.48;;;12.75;;
72524;SDS011;60547;48.502;8.996;2023-03-01T07:50:17;24.98;;;12.70;;
72524;SDS011;60547;48.502;8.996;2023-03-01T07:52:45;23.70;;;11.93;;
72524;SDS011;60547;48.502;8.996;2023-03-01T07:55:11;19.75;;;11.45;;
72524;SDS011;60547;48.502;8.996;2023-03-01T07:57:37;20.60;;;11.70;;
72524;SDS011;60547;48.502;8.996;2023-03-01T08:00:03;23.83;;;12.02;;
72524;SDS011;60547;48.502;8.996;2023-03-01T08:02:30;21.38;;;11.48;;
72524;SDS011;60547;48.502;8.996;2023-03-01T08:04:56;22.77;;;11.68;;
72524;SDS011;60547;48.502;8.996;2023-03-01T08:07:21;20.73;;;11.40;;
72524;SDS011;60547;48.502;8.996;2023-03-01T08:09:47;21.02;;;11.57;;
72524;SDS011;60547;48.502;8.996;2023-03-01T08:12:12;19.70;;;10.35;;
72524;SDS011;60547;48.502;8.996;2023-03-01T08:14:38;22.92;;;11.60;;
72524;SDS011;60547;48.502;8.996;2023-03-01T08:17:03;23.75;;;11.52;;
72524;SDS011;60547;48.502;8.996;2023-03-01T08:19:29;23.33;;;11.60;;
72524;SDS011;60547;48.502;8.996;2023-03-01T08:21:55;20.85;;;11.32;;
72524;SDS011;60547;48.502;8.996;2023-03-01T08:24:23;21.88;;;12.07;;
72524;SDS011;60547;48.502;8.996;2023-03-01T08:26:49;33.30;;;15.63;;
72524;SDS011;60547;48.502;8.996;2023-03-01T08:29:14;24.73;;;14.23;;
72524;SDS011;60547;48.502;8.996;2023-03-01T08:31:40;21.75;;;12.75;;
72524;SDS011;60547;48.502;8.996;2023-03-01T08:34:09;23.95;;;12.57;;
72524;SDS011;60547;48.502;8.996;2023-03-01T08:36:37;21.15;;;11.13;;
72524;SDS011;60547;48.502;8.996;2023-03-01T08:39:05;21.10;;;11.63;;
72524;SDS011;60547;48.502;8.996;2023-03-01T08:41:31;22.75;;;10.63;;
72524;SDS011;60547;48.502;8.996;2023-03-01T08:43:57;20.15;;;10.48;;
72524;SDS011;60547;48.502;8.996;2023-03-01T08:46:30;20.60;;;11.25;;
72524;SDS011;60547;48.502;8.996;2023-03-01T08:51:23;20.13;;;10.38;;
72524;SDS011;60547;48.502;8.996;2023-03-01T08:53:49;24.27;;;11.95;;
72524;SDS011;60547;48.502;8.996;2023-03-01T08:56:15;20.75;;;11.02;;
72524;SDS011;60547;48.502;8.996;2023-03-01T08:58:47;20.98;;;12.02;;
72524;SDS011;60547;48.502;8.996;2023-03-01T09:01:15;21.75;;;12.68;;
72524;SDS011;60547;48.502;8.996;2023-03-01T09:03:42;22.17;;;11.63;;
72524;SDS011;60547;48.502;8.996;2023-03-01T09:06:09;20.00;;;11.43;;
72524;SDS011;60547;48.502;8.996;2023-03-01T09:08:38;23.63;;;12.52;;
72524;SDS011;60547;48.502;8.996;2023-03-01T09:11:07;22.00;;;11.27;;
72524;SDS011;60547;48.502;8.996;2023-03-01T09:13:33;21.92;;;11.35;;
72524;SDS011;60547;48.502;8.996;2023-03-01T09:16:00;22.02;;;12.27;;
72524;SDS011;60547;48.502;8.996;2023-03-01T09:18:27;21.88;;;12.18;;
72524;SDS011;60547;48.502;8.996;2023-03-01T09:20:59;23.58;;;13.07;;
72524;SDS011;60547;48.502;8.996;2023-03-01T09:23:26;23.35;;;11.80;;
72524;SDS011;60547;48.502;8.996;2023-03-01T09:25:52;20.50;;;11.50;;
72524;SDS011;60547;48.502;8.996;2023-03-01T09:28:17;20.65;;;12.05;;
72524;SDS011;60547;48.502;8.996;2023-03-01T09:30:43;22.17;;;12.27;;
72524;SDS011;60547;48.502;8.996;2023-03-01T09:33:08;20.02;;;11.60;;
72524;SDS011;60547;48.502;8.996;2023-03-01T09:38:12;20.58;;;12.15;;
72524;SDS011;60547;48.502;8.996;2023-03-01T09:40:41;20.20;;;11.52;;
72524;SDS011;60547;48.502;8.996;2023-03-01T09:45:47;21.08;;;11.43;;
72524;SDS011;60547;48.502;8.996;2023-03-01T09:50:48;19.95;;;11.10;;
72524;SDS011;60547;48.502;8.996;2023-03-01T09:53:21;24.38;;;10.88;;
72524;SDS011;60547;48.502;8.996;2023-03-01T09:55:55;21.90;;;12.07;;
72524;SDS011;60547;48.502;8.996;2023-03-01T10:01:25;20.58;;;11.13;;
72524;SDS011;60547;48.502;8.996;2023-03-01T10:10:28;20.38;;;10.23;;
72524;SDS011;60547;48.502;8.996;2023-03-01T10:12:58;18.83;;;11.68;;
72524;SDS011;60547;48.502;8.996;2023-03-01T10:15:40;24.60;;;12.10;;
72524;SDS011;60547;48.502;8.996;2023-03-01T10:18:15;23.15;;;12.68;;
72524;SDS011;60547;48.502;8.996;2023-03-01T10:23:24;19.83;;;10.95;;
72524;SDS011;60547;48.502;8.996;2023-03-01T10:25:56;23.95;;;11.38;;
72524;SDS011;60547;48.502;8.996;2023-03-01T10:28:49;20.17;;;11.23;;
72524;SDS011;60547;48.502;8.996;2023-03-01T10:31:49;19.98;;;11.45;;
72524;SDS011;60547;48.502;8.996;2023-03-01T10:34:20;20.40;;;10.65;;
72524;SDS011;60547;48.502;8.996;2023-03-01T10:36:52;19.98;;;10.60;;
72524;SDS011;60547;48.502;8.996;2023-03-01T10:39:23;20.15;;;10.82;;
72524;SDS011;60547;48.502;8.996;2023-03-01T10:41:57;20.85;;;11.65;;
72524;SDS011;60547;48.502;8.996;2023-03-01T10:44:42;18.25;;;10.77;;
72524;SDS011;60547;48.502;8.996;2023-03-01T10:50:01;22.02;;;10.88;;
72524;SDS011;60547;48.502;8.996;2023-03-01T10:58:06;22.35;;;12.13;;
72524;SDS011;60547;48.502;8.996;2023-03-01T11:00:46;20.58;;;10.77;;
72524;SDS011;60547;48.502;8.996;2023-03-01T11:03:13;21.50;;;11.35;;
72524;SDS011;60547;48.502;8.996;2023-03-01T11:05:58;19.85;;;11.90;;
72524;SDS011;60547;48.502;8.996;2023-03-01T11:08:33;20.77;;;11.60;;
72524;SDS011;60547;48.502;8.996;2023-03-01T11:11:05;21.23;;;11.77;;
72524;SDS011;60547;48.502;8.996;2023-03-01T11:13:32;21.20;;;11.25;;
72524;SDS011;60547;48.502;8.996;2023-03-01T11:15:59;16.85;;;9.90;;
72524;SDS011;60547;48.502;8.996;2023-03-01T11:18:31;19.73;;;10.73;;
72524;SDS011;60547;48.502;8.996;2023-03-01T11:20:56;19.80;;;10.65;;
72524;SDS011;60547;48.502;8.996;2023-03-01T11:23:24;18.40;;;11.38;;
72524;SDS011;60547;48.502;8.996;2023-03-01T11:25:57;16.48;;;10.13;;
72524;SDS011;60547;48.502;8.996;2023-03-01T11:28:28;19.67;;;10.57;;
72524;SDS011;60547;48.502;8.996;2023-03-01T11:31:02;19.27;;;11.43;;
72524;SDS011;60547;48.502;8.996;2023-03-01T11:38:34;18.45;;;11.35;;
72524;SDS011;60547;48.502;8.996;2023-03-01T11:41:05;22.13;;;11.48;;
72524;SDS011;60547;48.502;8.996;2023-03-01T11:54:58;19.30;;;11.57;;
72524;SDS011;60547;48.502;8.996;2023-03-01T12:03:28;19.00;;;12.05;;
72524;SDS011;60547;48.502;8.996;2023-03-01T12:08:52;21.45;;;10.93;;
72524;SDS011;60547;48.502;8.996;2023-03-01T12:14:21;17.20;;;10.23;;
72524;SDS011;60547;48.502;8.996;2023-03-01T12:25:27;19.08;;;10.15;;
72524;SDS011;60547;48.502;8.996;2023-03-01T12:33:25;18.60;;;9.80;;
72524;SDS011;60547;48.502;8.996;2023-03-01T12:38:42;16.95;;;9.10;;
72524;SDS011;60547;48.502;8.996;2023-03-01T12:41:28;16.33;;;9.60;;
72524;SDS011;60547;48.502;8.996;2023-03-01T12:44:20;15.55;;;8.80;;
72524;SDS011;60547;48.502;8.996;2023-03-01T12:49:49;15.15;;;9.95;;
72524;SDS011;60547;48.502;8.996;2023-03-01T12:58:50;14.15;;;8.88;;
72524;SDS011;60547;48.502;8.996;2023-03-01T13:06:50;16.50;;;10.23;;
72524;SDS011;60547;48.502;8.996;2023-03-01T13:26:08;13.63;;;8.25;;
72524;SDS011;60547;48.502;8.996;2023-03-01T13:28:40;15.73;;;8.50;;
72524;SDS011;60547;48.502;8.996;2023-03-01T13:39:26;14.27;;;9.82;;
72524;SDS011;60547;48.502;8.996;2023-03-01T13:41:53;18.35;;;9.27;;
72524;SDS011;60547;48.502;8.996;2023-03-01T13:46:46;16.23;;;9.10;;
72524;SDS011;60547;48.502;8.996;2023-03-01T13:49:14;15.95;;;9.27;;
72524;SDS011;60547;48.502;8.996;2023-03-01T13:51:45;15.75;;;9.55;;
72524;SDS011;60547;48.502;8.996;2023-03-01T13:54:12;14.90;;;9.45;;
72524;SDS011;60547;48.502;8.996;2023-03-01T13:56:40;16.08;;;9.98;;
72524;SDS011;60547;48.502;8.996;2023-03-01T14:01:40;16.40;;;9.73;;
72524;SDS011;60547;48.502;8.996;2023-03-01T14:04:18;18.35;;;9.90;;
72524;SDS011;60547;48.502;8.996;2023-03-01T14:06:50;18.02;;;9.55;;
72524;SDS011;60547;48.502;8.996;2023-03-01T14:09:23;15.05;;;9.30;;
72524;SDS011;60547;48.502;8.996;2023-03-01T14:11:56;17.38;;;10.30;;
72524;SDS011;60547;48.502;8.996;2023-03-01T14:14:54;18.33;;;10.18;;
72524;SDS011;60547;48.502;8.996;2023-03-01T14:20:17;17.45;;;9.15;;
72524;SDS011;60547;48.502;8.996;2023-03-01T14:22:45;15.10;;;8.85;;
72524;SDS011;60547;48.502;8.996;2023-03-01T14:27:59;18.50;;;10.65;;
72524;SDS011;60547;48.502;8.996;2023-03-01T14:30:31;16.65;;;10.10;;
72524;SDS011;60547;48.502;8.996;2023-03-01T14:33:01;17.52;;;9.93;;
72524;SDS011;60547;48.502;8.996;2023-03-01T14:35:33;17.08;;;8.93;;
72524;SDS011;60547;48.502;8.996;2023-03-01T14:38:00;18.73;;;9.48;;
72524;SDS011;60547;48.502;8.996;2023-03-01T14:42:52;16.42;;;9.20;;
72524;SDS011;60547;48.502;8.996;2023-03-01T14:45:19;17.67;;;9.73;;
72524;SDS011;60547;48.502;8.996;2023-03-01T14:47:45;25.13;;;10.20;;
72524;SDS011;60547;48.502;8.996;2023-03-01T14:50:25;17.50;;;10.52;;
72524;SDS011;60547;48.502;8.996;2023-03-01T14:52:54;15.98;;;9.77;;
72524;SDS011;60547;48.502;8.996;2023-03-01T14:55:33;16.05;;;9.63;;
72524;SDS011;60547;48.502;8.996;2023-03-01T14:58:04;17.77;;;10.52;;
72524;SDS011;60547;48.502;8.996;2023-03-01T15:00:31;18.35;;;9.25;;
72524;SDS011;60547;48.502;8.996;2023-03-01T15:03:01;16.83;;;9.60;;
72524;SDS011;60547;48.502;8.996;2023-03-01T15:05:34;14.85;;;8.95;;
72524;SDS011;60547;48.502;8.996;2023-03-01T15:08:01;16.55;;;9.38;;
72524;SDS011;60547;48.502;8.996;2023-03-01T15:10:29;17.00;;;10.20;;
72524;SDS011;60547;48.502;8.996;2023-03-01T15:13:09;16.23;;;8.85;;
72524;SDS011;60547;48.502;8.996;2023-03-01T15:15:45;15.80;;;9.73;;
72524;SDS011;60547;48.502;8.996;2023-03-01T15:20:46;18.63;;;9.85;;
72524;SDS011;60547;48.502;8.996;2023-03-01T15:23:18;18.48;;;9.93;;
72524;SDS011;60547;48.502;8.996;2023-03-01T15:25:47;16.50;;;9.32;;
72524;SDS011;60547;48.502;8.996;2023-03-01T15:28:21;14.73;;;9.13;;
72524;SDS011;60547;48.502;8.996;2023-03-01T15:31:24;15.23;;;8.65;;
72524;SDS011;60547;48.502;8.996;2023-03-01T15:33:46;15.75;;;8.77;;
72524;SDS011;60547;48.502;8.996;2023-03-01T15:38:59;15.77;;;8.70;;
72524;SDS011;60547;48.502;8.996;2023-03-01T15:43:56;15.10;;;8.63;;
72524;SDS011;60547;48.502;8.996;2023-03-01T15:48:55;17.10;;;8.63;;
72524;SDS011;60547;48.502;8.996;2023-03-01T15:51:26;14.98;;;8.05;;
72524;SDS011;60547;48.502;8.996;2023-03-01T15:53:55;18.48;;;10.20;;
72524;SDS011;60547;48.502;8.996;2023-03-01T15:56:23;15.02;;;9.05;;
72524;SDS011;60547;48.502;8.996;2023-03-01T15:58:48;15.82;;;9.00;;
72524;SDS011;60547;48.502;8.996;2023-03-01T16:01:14;18.10;;;10.23;;
72524;SDS011;60547;48.502;8.996;2023-03-01T16:03:44;16.02;;;9.23;;
72524;SDS011;60547;48.502;8.996;2023-03-01T16:06:10;17.15;;;9.75;;
72524;SDS011;60547;48.502;8.996;2023-03-01T16:08:37;16.48;;;9.55;;
72524;SDS011;60547;48.502;8.996;2023-03-01T16:11:04;18.58;;;10.43;;
72524;SDS011;60547;48.502;8.996;2023-03-01T16:13:34;15.82;;;8.48;;
72524;SDS011;60547;48.502;8.996;2023-03-01T16:16:00;16.73;;;8.82;;
72524;SDS011;60547;48.502;8.996;2023-03-01T16:18:25;17.77;;;9.60;;
72524;SDS011;60547;48.502;8.996;2023-03-01T16:20:51;18.88;;;10.43;;
72524;SDS011;60547;48.502;8.996;2023-03-01T16:23:17;17.52;;;10.13;;
72524;SDS011;60547;48.502;8.996;2023-03-01T16:25:43;19.33;;;9.40;;
72524;SDS011;60547;48.502;8.996;2023-03-01T16:28:08;18.13;;;10.13;;
72524;SDS011;60547;48.502;8.996;2023-03-01T16:30:35;16.23;;;9.35;;
72524;SDS011;60547;48.502;8.996;2023-03-01T16:33:04;14.52;;;9.27;;
72524;SDS011;60547;48.502;8.996;2023-03-01T16:35:33;18.77;;;10.48;;
72524;SDS011;60547;48.502;8.996;2023-03-01T16:37:59;17.65;;;9.63;;
72524;SDS011;60547;48.502;8.996;2023-03-01T16:40:28;18.42;;;9.02;;
72524;SDS011;60547;48.502;8.996;2023-03-01T16:42:55;18.00;;;10.25;;
72524;SDS011;60547;48.502;8.996;2023-03-01T16:45:24;17.42;;;9.77;;
72524;SDS011;60547;48.502;8.996;2023-03-01T16:47:53;16.95;;;9.23;;
72524;SDS011;60547;48.502;8.996;2023-03-01T16:50:19;20.85;;;11.45;;
72524;SDS011;60547;48.502;8.996;2023-03-01T16:52:45;18.25;;;9.88;;
72524;SDS011;60547;48.502;8.996;2023-03-01T16:55:10;19.13;;;9.77;;
72524;SDS011;60547;48.502;8.996;2023-03-01T16:57:36;16.13;;;9.32;;
72524;SDS011;60547;48.502;8.996;2023-03-01T17:00:06;16.88;;;9.23;;
72524;SDS011;60547;48.502;8.996;2023-03-01T17:02:38;14.15;;;8.40;;
72524;SDS011;60547;48.502;8.996;2023-03-01T17:05:04;17.70;;;9.50;;
72524;SDS011;60547;48.502;8.996;2023-03-01T17:07:31;15.27;;;9.23;;